createdAt,value
2023-05-16T00:00:49.005Z,14.50
2023-05-16T00:05:50.977Z,14.40
2023-05-16T00:10:52.726Z,14.20
2023-05-16T00:15:56.155Z,14.30
2023-05-16T00:20:58.183Z,14.20
2023-05-16T00:25:59.931Z,14.30
2023-05-16T00:31:01.687Z,14.10
2023-05-16T00:36:03.484Z,13.90
2023-05-16T00:41:05.666Z,13.80
2023-05-16T00:46:07.560Z,13.60
2023-05-16T00:51:11.179Z,13.30
2023-05-16T00:56:13.010Z,13.40
2023-05-16T01:01:14.987Z,13.40
2023-05-16T01:06:16.954Z,13.40
2023-05-16T01:11:31.232Z,13.10
2023-05-16T01:16:45.766Z,13.00
2023-05-16T01:21:48.416Z,12.60
2023-05-16T01:26:51.671Z,12.30
2023-05-16T01:31:53.553Z,12.20
2023-05-16T01:37:16.286Z,11.90
2023-05-16T01:42:21.491Z,12.10
2023-05-16T01:47:26.889Z,12.60
2023-05-16T01:52:36.506Z,12.50
2023-05-16T01:57:40.254Z,12.50
2023-05-16T02:02:42.093Z,12.50
2023-05-16T02:07:44.682Z,12.50
2023-05-16T02:12:46.455Z,12.30
2023-05-16T02:17:48.529Z,12.60
2023-05-16T02:22:51.116Z,12.80
2023-05-16T02:27:52.919Z,12.80
2023-05-16T02:32:54.804Z,12.90
2023-05-16T02:37:57.115Z,13.00
2023-05-16T02:42:59.818Z,13.00
2023-05-16T02:48:01.621Z,13.00
2023-05-16T02:53:03.490Z,13.00
2023-05-16T02:58:05.372Z,13.00
2023-05-16T03:03:07.545Z,13.00
2023-05-16T03:08:09.878Z,13.00
2023-05-16T03:13:11.722Z,12.90
2023-05-16T03:18:13.586Z,12.90
2023-05-16T03:23:15.459Z,12.90
2023-05-16T03:28:18.204Z,12.70
2023-05-16T03:33:20.245Z,12.60
2023-05-16T03:38:22.059Z,12.70
2023-05-16T03:43:23.761Z,12.80
2023-05-16T03:48:25.580Z,12.90
2023-05-16T03:53:27.612Z,12.90
2023-05-16T03:58:29.435Z,12.80
2023-05-16T04:03:31.418Z,12.80
2023-05-16T04:08:33.373Z,12.90
2023-05-16T04:13:35.148Z,13.00
2023-05-16T04:18:36.945Z,13.00
2023-05-16T04:23:38.713Z,13.20
2023-05-16T04:28:41.685Z,13.40
2023-05-16T04:33:43.523Z,13.40
2023-05-16T04:38:47.164Z,13.40
2023-05-16T04:43:49.019Z,13.30
2023-05-16T04:48:52.104Z,13.30
2023-05-16T04:53:53.908Z,13.20
2023-05-16T04:58:55.786Z,13.50
2023-05-16T05:03:57.556Z,13.60
2023-05-16T05:08:59.432Z,13.60
2023-05-16T05:14:02.327Z,13.60
2023-05-16T05:19:04.664Z,13.40
2023-05-16T05:24:06.703Z,13.70
2023-05-16T05:29:08.858Z,13.60
2023-05-16T05:34:10.757Z,13.80
2023-05-16T05:39:12.659Z,13.70
2023-05-16T05:44:14.412Z,13.50
2023-05-16T05:49:16.692Z,13.50
2023-05-16T05:54:19.636Z,13.50
2023-05-16T05:59:21.542Z,13.60
2023-05-16T06:04:23.329Z,13.50
2023-05-16T06:09:25.060Z,13.50
2023-05-16T06:14:26.805Z,13.60
2023-05-16T06:19:28.595Z,13.50
2023-05-16T06:24:30.576Z,13.40
2023-05-16T06:29:32.491Z,13.40
2023-05-16T06:34:34.259Z,13.40
2023-05-16T06:39:36.011Z,13.50
2023-05-16T06:44:37.785Z,13.50
2023-05-16T06:49:39.553Z,13.50
2023-05-16T06:54:41.347Z,13.60
2023-05-16T06:59:43.549Z,13.60
2023-05-16T07:04:45.654Z,13.70
2023-05-16T07:09:47.433Z,13.80
2023-05-16T07:14:49.222Z,14.00
2023-05-16T07:19:51.091Z,14.10
2023-05-16T07:24:57.074Z,14.50
2023-05-16T07:29:58.962Z,14.60
2023-05-16T07:35:00.732Z,14.80
2023-05-16T07:40:03.816Z,15.20
2023-05-16T07:45:07.686Z,15.20
2023-05-16T07:50:10.667Z,15.30
2023-05-16T07:55:12.563Z,15.60
2023-05-16T08:00:15.119Z,15.60
2023-05-16T08:05:17.216Z,15.10
2023-05-16T08:10:19.115Z,15.20
2023-05-16T08:15:21.652Z,15.30
2023-05-16T08:20:23.475Z,15.10
2023-05-16T08:25:25.694Z,15.00
2023-05-16T08:30:28.301Z,15.30
2023-05-16T08:35:30.350Z,15.50
2023-05-16T08:40:32.163Z,16.90
2023-05-16T08:45:34.200Z,16.40
2023-05-16T08:50:36.487Z,15.90
2023-05-16T08:55:39.521Z,15.90
2023-05-16T09:00:41.812Z,15.70
2023-05-16T09:05:43.738Z,15.50
2023-05-16T09:10:45.549Z,15.20
2023-05-16T09:16:17.345Z,15.10
2023-05-16T09:21:19.887Z,14.90
2023-05-16T09:26:22.740Z,14.80
2023-05-16T09:31:37.909Z,14.80
2023-05-16T09:36:42.112Z,14.90
2023-05-16T09:41:45.521Z,14.70
2023-05-16T09:46:47.387Z,14.60
2023-05-16T09:51:49.287Z,15.00
2023-05-16T09:56:52.754Z,15.10
2023-05-16T10:01:57.340Z,15.40
2023-05-16T10:07:03.342Z,16.40
2023-05-16T10:12:08.568Z,16.70
2023-05-16T10:17:14.362Z,15.90
2023-05-16T10:22:17.061Z,15.90
2023-05-16T10:27:21.169Z,16.00
2023-05-16T10:32:25.503Z,16.00
2023-05-16T10:37:28.104Z,16.10
2023-05-16T10:42:32.814Z,16.30
2023-05-16T10:47:34.827Z,15.80
2023-05-16T10:52:36.665Z,15.80
2023-05-16T10:57:39.267Z,15.60
2023-05-16T11:02:41.839Z,15.40
2023-05-16T11:07:44.289Z,15.60
2023-05-16T11:12:51.294Z,16.20
2023-05-16T11:18:06.966Z,16.40
2023-05-16T11:23:21.796Z,16.80
2023-05-16T11:28:27.737Z,16.70
2023-05-16T11:33:34.318Z,16.50
2023-05-16T11:38:37.072Z,16.60
2023-05-16T11:43:44.776Z,16.40
2023-05-16T11:48:47.362Z,16.00
2023-05-16T11:53:53.243Z,15.80
2023-05-16T11:58:55.157Z,15.50
2023-05-16T12:03:58.076Z,15.40
2023-05-16T12:09:03.038Z,15.10
2023-05-16T12:14:10.253Z,14.90
2023-05-16T12:19:12.509Z,15.30
2023-05-16T12:24:14.616Z,15.70
2023-05-16T12:29:16.528Z,16.20
2023-05-16T12:34:21.314Z,16.30
2023-05-16T12:39:23.376Z,15.90
2023-05-16T12:44:30.231Z,16.10
2023-05-16T12:49:33.423Z,16.10
2023-05-16T12:54:35.381Z,16.00
2023-05-16T12:59:37.411Z,15.70
2023-05-16T13:04:39.170Z,15.60
2023-05-16T13:09:41.825Z,15.70
2023-05-16T13:14:44.046Z,15.50
2023-05-16T13:19:48.253Z,15.60
2023-05-16T13:24:50.757Z,15.60
2023-05-16T13:29:52.491Z,15.90
2023-05-16T13:34:55.147Z,15.60
2023-05-16T13:39:57.094Z,15.40
2023-05-16T13:44:58.884Z,15.90
2023-05-16T13:50:06.016Z,16.80
2023-05-16T13:55:08.593Z,17.30
2023-05-16T14:05:18.507Z,17.50
2023-05-16T14:10:20.313Z,16.60
2023-05-16T14:15:22.196Z,16.30
2023-05-16T14:20:23.984Z,16.20
2023-05-16T14:25:26.027Z,16.00
2023-05-16T14:30:28.202Z,16.30
2023-05-16T14:35:31.269Z,16.30
2023-05-16T14:40:34.238Z,16.50
2023-05-16T14:45:37.079Z,16.80
2023-05-16T14:50:38.868Z,16.80
2023-05-16T14:55:40.872Z,16.60
2023-05-16T15:00:42.641Z,16.50
2023-05-16T15:05:45.190Z,16.30
2023-05-16T15:10:47.088Z,15.80
2023-05-16T15:15:48.932Z,16.00
2023-05-16T15:20:53.078Z,15.90
2023-05-16T15:25:55.366Z,15.70
2023-05-16T15:30:57.137Z,15.90
2023-05-16T15:35:59.007Z,15.60
2023-05-16T15:41:16.531Z,15.70
2023-05-16T15:46:22.715Z,15.70
2023-05-16T15:51:24.598Z,15.90
2023-05-16T15:56:26.453Z,16.20
2023-05-16T16:01:28.309Z,16.40
2023-05-16T16:06:30.205Z,16.30
2023-05-16T16:11:32.133Z,16.10
2023-05-16T16:16:34.158Z,16.20
2023-05-16T16:21:37.222Z,16.10
2023-05-16T16:26:39.015Z,16.10
2023-05-16T16:31:40.941Z,16.10
2023-05-16T16:36:42.723Z,15.90
2023-05-16T16:41:44.540Z,15.90
2023-05-16T16:46:46.520Z,15.60
2023-05-16T16:51:49.972Z,15.60
2023-05-16T16:56:52.537Z,15.50
2023-05-16T17:01:54.456Z,15.30
2023-05-16T17:06:56.510Z,15.20
2023-05-16T17:11:58.315Z,15.00
2023-05-16T17:17:00.140Z,14.90
2023-05-16T17:22:02.328Z,14.80
2023-05-16T17:27:04.798Z,14.70
2023-05-16T17:32:06.949Z,14.50
2023-05-16T17:37:10.781Z,14.50
2023-05-16T17:42:12.744Z,14.50
2023-05-16T17:47:14.740Z,14.30
2023-05-16T17:52:16.583Z,14.30
2023-05-16T17:57:18.761Z,14.20
2023-05-16T18:02:20.648Z,14.00
2023-05-16T18:07:22.734Z,13.90
2023-05-16T18:12:24.847Z,13.90
2023-05-16T18:17:26.595Z,13.70
2023-05-16T18:22:28.361Z,13.60
2023-05-16T18:27:30.146Z,13.40
2023-05-16T18:32:32.309Z,13.30
2023-05-16T18:37:34.359Z,13.20
2023-05-16T18:42:36.188Z,13.00
2023-05-16T18:47:38.142Z,12.90
2023-05-16T18:52:40.690Z,12.80
2023-05-16T18:57:44.008Z,12.70
2023-05-16T19:02:46.419Z,12.60
2023-05-16T19:07:48.372Z,12.40
2023-05-16T19:12:50.334Z,12.30
2023-05-16T19:17:52.237Z,12.20
2023-05-16T19:22:54.009Z,12.10
2023-05-16T19:27:55.807Z,12.00
2023-05-16T19:32:57.688Z,11.80
2023-05-16T19:38:00.066Z,11.60
2023-05-16T19:43:01.925Z,11.50
2023-05-16T19:48:04.195Z,11.50
2023-05-16T19:53:06.134Z,11.30
2023-05-16T19:58:08.176Z,11.30
2023-05-16T20:03:10.047Z,11.10
2023-05-16T20:08:12.234Z,11.00
2023-05-16T20:13:18.282Z,10.90
2023-05-16T20:18:20.235Z,10.80
2023-05-16T20:23:22.052Z,10.80
2023-05-16T20:28:23.814Z,10.70
2023-05-16T20:33:25.867Z,10.50
2023-05-16T20:38:27.881Z,10.30
2023-05-16T20:43:29.664Z,10.20
2023-05-16T20:48:31.498Z,10.00
2023-05-16T20:53:33.375Z,9.80
2023-05-16T20:58:35.249Z,9.80
2023-05-16T21:03:37.079Z,9.90
2023-05-16T21:08:39.245Z,9.90
2023-05-16T21:13:41.032Z,9.80
2023-05-16T21:18:43.020Z,9.70
2023-05-16T21:23:45.036Z,9.60
2023-05-16T21:33:53.271Z,9.50
2023-05-16T21:38:55.061Z,9.20
2023-05-16T21:43:56.818Z,9.00
2023-05-16T21:48:59.741Z,8.90
2023-05-16T21:54:03.116Z,8.90
2023-05-16T21:59:05.056Z,9.10
2023-05-16T22:04:06.990Z,9.10
2023-05-16T22:09:08.994Z,9.00
2023-05-16T22:14:10.946Z,8.90
2023-05-16T22:19:12.842Z,9.10
2023-05-16T22:24:14.651Z,9.10
2023-05-16T22:29:16.444Z,9.00
2023-05-16T22:34:18.324Z,8.70
2023-05-16T22:39:20.099Z,8.40
2023-05-16T22:44:22.028Z,8.20
2023-05-16T22:49:24.166Z,8.20
2023-05-16T22:54:26.014Z,8.40
2023-05-16T22:59:27.791Z,8.60
2023-05-16T23:04:29.667Z,8.30
2023-05-16T23:09:31.694Z,8.10
2023-05-16T23:14:33.494Z,8.10
2023-05-16T23:19:35.510Z,8.10
2023-05-16T23:24:37.385Z,8.20
2023-05-16T23:29:39.156Z,8.20
2023-05-16T23:34:41.145Z,8.00
2023-05-16T23:39:43.225Z,8.00
2023-05-16T23:44:45.105Z,8.10
2023-05-16T23:49:46.865Z,8.00
2023-05-16T23:54:48.895Z,8.00
2023-05-16T23:59:50.618Z,7.70
